Time;durP1;ratioP1;P1;durP2;ratioP2;P2;SDS_P1;SDS_P2;PMS_P1;PMS_P2;Temp;Humidity;BMP_temperature;BMP_pressure;BME280_temperature;BME280_humidity;BME280_pressure;Samples;Min_cycle;Max_cycle;Signal;HPM_P1;HPM_P2
2020/12/15 00:00:10;;;;;;;21.65;15.43;;;;;;;2.29;84.08;99808.27;1807710;78;21057;-66
2020/12/15 00:02:37;;;;;;;22.22;15.30;;;;;;;2.34;83.89;99821.10;1807743;79;21132;-67
2020/12/15 00:05:06;;;;;;;24.15;15.58;;;;;;;2.35;83.61;99829.23;1807722;79;21191;-66
2020/12/15 00:07:33;;;;;;;23.45;16.17;;;;;;;2.34;83.51;99824.95;1807684;79;21188;-66
2020/12/15 00:10:01;;;;;;;31.60;19.12;;;;;;;2.35;83.63;99831.37;1807752;79;21045;-66
2020/12/15 00:12:29;;;;;;;26.27;18.02;;;;;;;2.37;83.33;99835.22;1807692;79;21065;-66
2020/12/15 00:14:57;;;;;;;25.17;17.73;;;;;;;2.30;83.29;99834.80;1807750;78;21561;-66
2020/12/15 00:17:24;;;;;;;26.00;18.05;;;;;;;2.25;83.43;99831.38;1807681;78;21362;-66
2020/12/15 00:19:52;;;;;;;25.85;16.97;;;;;;;2.23;83.50;99830.52;1807658;79;21077;-66
2020/12/15 00:22:19;;;;;;;22.87;15.88;;;;;;;2.23;83.56;99826.25;1807710;78;21042;-66
2020/12/15 00:24:48;;;;;;;24.90;17.00;;;;;;;2.26;83.41;99831.80;1807920;79;21050;-66
2020/12/15 00:27:15;;;;;;;26.48;18.12;;;;;;;2.25;83.60;99827.53;1807894;78;21125;-66
2020/12/15 00:29:43;;;;;;;26.10;17.85;;;;;;;2.29;83.54;99830.09;1807839;79;23605;-66
2020/12/15 00:32:10;;;;;;;25.88;17.75;;;;;;;2.35;83.50;99829.23;1807783;78;21924;-66
2020/12/15 00:34:39;;;;;;;25.08;17.27;;;;;;;2.40;83.37;99835.18;1807875;79;21081;-66
2020/12/15 00:37:08;;;;;;;23.52;17.17;;;;;;;2.41;83.07;99831.76;1807861;79;21101;-66
2020/12/15 00:39:36;;;;;;;25.57;17.85;;;;;;;2.36;82.79;99833.08;1802097;79;21564;-66
2020/12/15 00:42:05;;;;;;;25.50;17.92;;;;;;;2.26;82.71;99837.80;1799967;79;21364;-66
2020/12/15 00:44:34;;;;;;;25.02;17.27;;;;;;;2.15;83.00;99838.26;1799859;79;21591;-66
2020/12/15 00:47:03;;;;;;;26.27;18.37;;;;;;;2.12;83.44;99839.97;1799965;79;21156;-66
2020/12/15 00:49:31;;;;;;;23.55;17.12;;;;;;;2.15;83.44;99849.80;1799962;78;21065;-66
2020/12/15 00:52:00;;;;;;;26.48;18.32;;;;;;;2.14;83.41;99844.24;1799962;79;21029;-66
2020/12/15 00:54:27;;;;;;;24.12;16.23;;;;;;;2.11;83.53;99842.96;1799936;79;22379;-66
2020/12/15 00:56:56;;;;;;;22.55;15.85;;;;;;;2.15;83.56;99836.12;1799863;78;21135;-66
2020/12/15 00:59:23;;;;;;;22.93;16.15;;;;;;;2.18;83.51;99838.26;1799899;78;21080;-66
2020/12/15 01:01:51;;;;;;;21.50;16.25;;;;;;;2.19;83.50;99850.23;1799899;79;21998;-65
2020/12/15 01:04:20;;;;;;;22.82;16.93;;;;;;;2.18;83.49;99854.94;1800026;78;21769;-66
2020/12/15 01:06:50;;;;;;;23.55;17.35;;;;;;;2.18;83.65;99849.80;1799946;78;21557;-66
2020/12/15 01:09:19;;;;;;;24.82;17.35;;;;;;;2.19;83.51;99845.53;1800084;78;21069;-66
2020/12/15 01:11:47;;;;;;;23.67;16.40;;;;;;;2.16;83.53;99849.37;1799924;78;21111;-66
2020/12/15 01:14:16;;;;;;;21.57;15.30;;;;;;;2.13;83.49;99835.27;1799810;79;21132;-66
2020/12/15 01:16:45;;;;;;;23.10;16.02;;;;;;;2.10;83.53;99847.66;1799944;79;21124;-66
2020/12/15 01:19:12;;;;;;;25.48;17.75;;;;;;;2.06;83.59;99837.83;1799964;78;21466;-66
2020/12/15 01:21:40;;;;;;;22.40;17.15;;;;;;;2.03;83.67;99841.67;1799852;79;21991;-66
2020/12/15 01:24:08;;;;;;;25.43;16.90;;;;;;;2.02;83.86;99841.67;1799864;79;21053;-66
2020/12/15 01:26:37;;;;;;;23.80;16.27;;;;;;;2.01;83.73;99838.25;1797961;79;21141;-66
2020/12/15 01:29:07;;;;;;;20.90;15.63;;;;;;;1.97;83.84;99835.72;1800000;78;21088;-66
2020/12/15 01:31:36;;;;;;;20.82;14.75;;;;;;;1.97;83.90;99839.56;1799986;79;21575;-66
2020/12/15 01:34:12;;;;;;;18.90;14.50;;;;;;;1.96;83.94;99836.14;1799389;79;21088;-66
2020/12/15 01:36:45;;;;;;;22.62;15.65;;;;;;;1.93;83.99;99837.42;1799875;79;21226;-66
2020/12/15 01:39:14;;;;;;;22.87;16.05;;;;;;;1.92;84.08;99838.70;1799691;78;21148;-66
2020/12/15 01:41:56;;;;;;;22.55;16.05;;;;;;;1.89;84.19;99842.13;1799684;78;21117;-66
2020/12/15 01:44:24;;;;;;;22.75;16.15;;;;;;;1.89;84.30;99835.72;1799896;78;21944;-66
2020/12/15 01:46:52;;;;;;;20.60;14.95;;;;;;;1.88;84.18;99839.13;1799911;79;21069;-66
2020/12/15 01:49:22;;;;;;;21.25;14.40;;;;;;;1.91;84.30;99843.41;1799713;79;21501;-66
2020/12/15 01:51:52;;;;;;;21.02;14.68;;;;;;;1.91;84.16;99836.56;1799733;79;21077;-66
2020/12/15 01:54:21;;;;;;;22.32;14.90;;;;;;;1.87;84.15;99836.56;1799926;79;21076;-66
2020/12/15 01:56:50;;;;;;;22.80;15.75;;;;;;;1.86;84.45;99842.13;1784679;79;21152;-66
2020/12/15 01:59:23;;;;;;;19.20;14.28;;;;;;;1.89;84.30;99838.28;1798825;79;21164;-65
2020/12/15 02:01:53;;;;;;;20.02;14.10;;;;;;;1.85;84.15;99839.13;1799980;78;21089;-65
2020/12/15 02:04:22;;;;;;;19.82;14.73;;;;;;;1.85;84.36;99837.84;1799076;79;21477;-65
2020/12/15 02:06:52;;;;;;;21.48;15.48;;;;;;;1.84;84.39;99832.72;1799180;79;21477;-65
2020/12/15 02:09:21;;;;;;;22.27;16.55;;;;;;;1.87;84.65;99837.42;1799990;79;22249;-65
2020/12/15 02:11:52;;;;;;;21.37;14.98;;;;;;;1.96;84.67;99833.58;1799308;79;21080;-65
2020/12/15 02:14:20;;;;;;;20.10;13.88;;;;;;;2.04;84.29;99835.69;1799865;79;21207;-65
2020/12/15 02:16:50;;;;;;;20.57;14.68;;;;;;;2.05;84.07;99831.41;1799855;78;21493;-65
2020/12/15 02:19:20;;;;;;;19.17;14.53;;;;;;;2.08;84.10;99823.29;1800024;79;21073;-66
2020/12/15 02:21:54;;;;;;;19.62;14.70;;;;;;;2.14;84.12;99833.13;1799872;79;21189;-66
2020/12/15 02:24:24;;;;;;;21.20;14.98;;;;;;;2.16;83.84;99830.12;1799833;79;21065;-66
2020/12/15 02:26:56;;;;;;;;;;;;;;;2.12;83.69;99827.14;1801972;79;21064;-66
2020/12/15 02:29:25;;;;;;;19.62;14.38;;;;;;;2.07;83.64;99821.58;1799576;79;20239;-66
2020/12/15 02:31:52;;;;;;;20.75;14.65;;;;;;;2.07;83.98;99819.44;1799864;78;21476;-66
2020/12/15 02:34:21;;;;;;;19.30;13.65;;;;;;;2.12;83.77;99822.01;1799878;79;21213;-65
2020/12/15 02:36:48;;;;;;;18.15;13.28;;;;;;;2.11;83.57;99822.44;1799819;79;21917;-65
2020/12/15 02:39:19;;;;;;;17.12;13.53;;;;;;;2.09;83.69;99822.86;1802080;77;21466;-65
2020/12/15 02:41:53;;;;;;;19.10;13.85;;;;;;;2.13;83.64;99822.44;1804321;78;21517;-65
2020/12/15 02:44:23;;;;;;;17.32;13.70;;;;;;;2.09;83.50;99824.14;1778828;79;21085;-66
2020/12/15 02:46:52;;;;;;;19.40;12.70;;;;;;;2.01;83.41;99833.13;1806501;79;21195;-65
2020/12/15 02:49:21;;;;;;;18.10;13.72;;;;;;;1.94;83.53;99837.00;1807781;79;21072;-66
2020/12/15 02:51:49;;;;;;;18.27;13.85;;;;;;;1.88;83.72;99828.88;1807747;79;21578;-66
2020/12/15 02:54:24;;;;;;;18.25;13.78;;;;;;;1.88;83.93;99833.14;1806378;78;21120;-67
2020/12/15 02:56:54;;;;;;;18.65;13.88;;;;;;;1.90;83.98;99838.70;1807790;79;21052;-66
2020/12/15 02:59:23;;;;;;;19.00;14.95;;;;;;;1.88;83.99;99839.56;1807746;79;21348;-67
2020/12/15 03:01:52;;;;;;;16.32;12.78;;;;;;;1.87;84.17;99839.98;1807698;79;21057;-66
2020/12/15 03:04:20;;;;;;;18.95;14.10;;;;;;;1.92;84.23;99837.42;1807796;79;21054;-66
2020/12/15 03:06:50;;;;;;;19.90;14.70;;;;;;;1.97;84.13;99844.27;1807702;79;21119;-66
2020/12/15 03:09:19;;;;;;;20.48;15.32;;;;;;;2.02;83.98;99837.83;1806127;78;21049;-66
2020/12/15 03:11:49;;;;;;;20.32;14.75;;;;;;;2.01;83.95;99838.25;1807217;79;21271;-66
2020/12/15 03:14:27;;;;;;;22.35;16.37;;;;;;;2.05;83.83;99848.95;1873561;75;22093;-67
2020/12/15 03:16:55;;;;;;;23.15;15.90;;;;;;;1.95;83.82;99848.55;1841592;77;21054;-67
2020/12/15 03:19:24;;;;;;;22.70;15.93;;;;;;;1.90;83.90;99848.97;1841638;78;22105;-67
2020/12/15 03:21:51;;;;;;;24.32;16.55;;;;;;;1.87;83.96;99850.24;1841571;78;21568;-67
2020/12/15 03:24:19;;;;;;;22.65;16.20;;;;;;;1.86;84.25;99852.81;1841535;78;21168;-67
2020/12/15 03:26:49;;;;;;;19.30;15.88;;;;;;;1.88;84.25;99849.82;1841532;78;21061;-67
2020/12/15 03:29:17;;;;;;;23.20;17.75;;;;;;;1.86;84.29;99851.52;1841583;78;21076;-67
2020/12/15 03:31:45;;;;;;;22.22;15.58;;;;;;;1.83;84.50;99852.38;1841608;77;23520;-67
2020/12/15 03:34:14;;;;;;;21.57;16.10;;;;;;;1.88;84.50;99857.09;1841164;78;21470;-67
2020/12/15 03:36:42;;;;;;;21.77;15.60;;;;;;;1.90;84.36;99857.94;1841518;77;21545;-67
2020/12/15 03:39:10;;;;;;;22.62;16.07;;;;;;;1.93;84.40;99866.92;1841491;78;21180;-67
2020/12/15 03:41:38;;;;;;;21.10;16.20;;;;;;;1.93;84.31;99865.64;1841429;78;21057;-67
2020/12/15 03:44:07;;;;;;;22.62;15.50;;;;;;;1.92;84.45;99866.92;1840654;78;21645;-67
2020/12/15 03:46:39;;;;;;;23.05;15.55;;;;;;;1.94;84.45;99863.94;1840701;78;21088;-66
2020/12/15 03:49:08;;;;;;;21.82;15.20;;;;;;;1.97;84.43;99864.80;1841477;77;21058;-67
2020/12/15 03:51:37;;;;;;;19.73;14.63;;;;;;;1.98;84.24;99866.93;1841536;78;21064;-67
2020/12/15 03:54:13;;;;;;;22.73;16.12;;;;;;;1.96;84.21;99875.91;1787195;77;21766;-67
2020/12/15 03:56:42;;;;;;;25.23;17.52;;;;;;;1.91;84.33;99878.89;1837774;78;21350;-67
2020/12/15 03:59:10;;;;;;;23.85;16.77;;;;;;;1.90;84.33;99878.89;1841416;78;21180;-67
2020/12/15 04:01:38;;;;;;;21.07;15.50;;;;;;;1.86;84.51;99873.33;1841553;78;21045;-67
2020/12/15 04:04:06;;;;;;;22.65;15.48;;;;;;;1.87;84.47;99877.17;1811173;78;21070;-67
2020/12/15 04:06:37;;;;;;;22.25;15.75;;;;;;;1.87;84.42;99877.17;1841000;77;21057;-67
2020/12/15 04:09:07;;;;;;;24.52;16.90;;;;;;;1.86;84.52;99871.62;1840787;78;21189;-66
2020/12/15 04:11:35;;;;;;;23.38;16.62;;;;;;;1.86;84.54;99870.34;1841399;77;21057;-67
2020/12/15 04:14:03;;;;;;;26.50;17.10;;;;;;;1.84;84.57;99872.05;1810981;78;21117;-66
2020/12/15 04:16:31;;;;;;;23.05;16.40;;;;;;;1.84;84.84;99869.91;1808438;78;21117;-66
2020/12/15 04:19:00;;;;;;;23.52;15.60;;;;;;;1.85;84.62;99867.34;1807460;78;21147;-67
2020/12/15 04:21:29;;;;;;;23.55;16.07;;;;;;;1.87;84.76;99875.03;1808460;79;21363;-67
2020/12/15 04:23:59;;;;;;;27.67;18.12;;;;;;;1.86;84.61;99880.59;1808011;79;21069;-67
2020/12/15 04:26:29;;;;;;;25.30;16.85;;;;;;;1.80;84.63;99884.43;1807788;79;21061;-67
2020/12/15 04:28:57;;;;;;;24.20;16.93;;;;;;;1.77;84.81;99888.30;1807971;78;21049;-66
2020/12/15 04:31:30;;;;;;;21.17;15.63;;;;;;;1.76;85.04;99885.31;1807863;79;21057;-66
2020/12/15 04:33:59;;;;;;;27.20;17.15;;;;;;;1.78;84.90;99897.70;1807880;79;22088;-65
2020/12/15 04:36:28;;;;;;;23.22;16.02;;;;;;;1.76;84.96;99907.53;1807823;79;20935;-65
2020/12/15 04:38:58;;;;;;;24.40;16.62;;;;;;;1.77;85.29;99903.69;1807875;79;21057;-65
2020/12/15 04:41:34;;;;;;;24.35;16.27;;;;;;;1.81;85.15;99907.94;1806908;79;21077;-65
2020/12/15 04:44:02;;;;;;;25.23;16.45;;;;;;;1.78;85.02;99911.81;1807827;79;21761;-65
2020/12/15 04:46:40;;;;;;;24.43;15.35;;;;;;;1.75;85.16;99909.24;1807835;78;21360;-65
2020/12/15 04:49:08;;;;;;;22.42;14.63;;;;;;;1.75;85.13;99911.80;1807110;79;20946;-65
2020/12/15 04:52:01;;;;;;;22.62;14.58;;;;;;;1.74;85.23;99911.38;1807583;79;21085;-66
2020/12/15 04:54:39;;;;;;;24.05;16.10;;;;;;;1.79;85.26;99916.52;1873563;75;22654;-66
2020/12/15 04:57:09;;;;;;;26.70;17.40;;;;;;;1.71;85.33;99925.05;1812030;78;21066;-67
2020/12/15 04:59:38;;;;;;;24.52;15.98;;;;;;;1.69;85.48;99924.61;1838317;78;21179;-67
2020/12/15 05:02:18;;;;;;;26.42;16.52;;;;;;;1.75;85.53;99927.62;1873606;76;22770;-67
2020/12/15 05:04:47;;;;;;;23.25;15.43;;;;;;;1.70;85.58;99920.77;1841580;77;21056;-67
2020/12/15 05:07:15;;;;;;;21.97;15.50;;;;;;;1.73;85.52;99927.19;1811571;78;21316;-67
2020/12/15 05:09:53;;;;;;;23.75;15.85;;;;;;;1.78;85.62;99935.32;1839394;77;21070;-67
2020/12/15 05:12:23;;;;;;;24.63;17.70;;;;;;;1.80;85.44;99933.16;1833984;77;21077;-67
2020/12/15 05:14:51;;;;;;;28.02;17.02;;;;;;;1.78;85.37;99937.89;1808506;79;21117;-67
2020/12/15 05:17:27;;;;;;;23.45;15.55;;;;;;;1.76;85.46;99942.15;1808429;79;21134;-67
2020/12/15 05:20:27;;;;;;;23.18;16.15;;;;;;;1.81;85.38;99945.55;1890077;75;22725;-67
2020/12/15 05:22:57;;;;;;;23.55;15.95;;;;;;;1.76;85.45;99946.86;1859675;77;21145;-67
2020/12/15 05:25:31;;;;;;;24.23;16.60;;;;;;;1.77;85.54;99949.85;1859872;77;22320;-67
2020/12/15 05:28:04;;;;;;;25.70;16.10;;;;;;;1.77;85.43;99956.27;1860961;77;21565;-67
2020/12/15 05:30:33;;;;;;;26.52;17.95;;;;;;;1.78;85.53;99950.70;1860046;77;21123;-67
2020/12/15 05:33:20;;;;;;;27.40;17.87;;;;;;;1.84;85.79;99954.54;1860946;77;20930;-67
2020/12/15 05:35:50;;;;;;;21.82;15.43;;;;;;;1.92;85.67;99951.57;1857276;77;20930;-67
2020/12/15 05:38:22;;;;;;;23.60;17.00;;;;;;;1.98;85.42;99956.72;1859566;77;21196;-67
2020/12/15 05:41:05;;;;;;;26.25;17.98;;;;;;;2.02;85.40;99959.27;1860899;77;21053;-67
2020/12/15 05:43:38;;;;;;;28.32;18.75;;;;;;;2.09;85.14;99961.41;1854798;77;21112;-67
2020/12/15 05:46:09;;;;;;;23.02;16.25;;;;;;;2.09;84.97;99970.39;1828043;77;21044;-66
2020/12/15 05:48:37;;;;;;;30.75;19.70;;;;;;;2.04;84.76;99969.53;1860831;77;21128;-66
2020/12/15 05:51:06;;;;;;;29.77;19.20;;;;;;;1.98;84.69;99975.95;1860880;77;21181;-67
2020/12/15 05:53:33;;;;;;;28.35;19.77;;;;;;;1.95;84.82;99973.38;1860797;77;21588;-67
2020/12/15 05:56:04;;;;;;;32.28;21.50;;;;;;;1.94;84.97;99981.51;1860853;77;20961;-66
2020/12/15 05:58:31;;;;;;;33.80;22.45;;;;;;;1.97;85.13;99984.50;1828499;77;21080;-66
2020/12/15 06:01:11;;;;;;;33.58;20.52;;;;;;;2.01;85.17;99988.76;1860855;77;21049;-69
2020/12/15 06:03:40;;;;;;;28.10;17.55;;;;;;;2.02;84.98;99995.17;1860110;77;21346;-68
2020/12/15 06:06:09;;;;;;;23.62;16.05;;;;;;;2.05;85.05;99991.34;1860819;77;21072;-67
2020/12/15 06:08:39;;;;;;;24.47;16.35;;;;;;;2.07;84.67;99997.76;1860706;77;21096;-69
2020/12/15 06:11:07;;;;;;;27.27;16.48;;;;;;;2.04;84.66;100005.02;1860831;77;21533;-69
2020/12/15 06:13:36;;;;;;;25.72;17.27;;;;;;;2.02;84.68;100012.28;1804104;78;21199;-69
2020/12/15 06:16:04;;;;;;;23.40;15.40;;;;;;;1.98;84.76;100013.16;1825671;78;21440;-71
2020/12/15 06:18:33;;;;;;;20.20;13.98;;;;;;;1.98;85.04;100016.58;1794819;78;21195;-69
2020/12/15 06:21:09;;;;;;;22.50;15.20;;;;;;;2.03;84.81;100028.96;1766670;78;21048;-71
2020/12/15 06:23:38;;;;;;;24.95;17.65;;;;;;;2.04;84.73;100022.12;1824007;78;21112;-68
2020/12/15 06:26:10;;;;;;;22.87;16.52;;;;;;;2.04;84.89;100031.10;1784322;80;21174;-69
2020/12/15 06:28:39;;;;;;;27.37;17.75;;;;;;;2.11;84.98;100034.12;1817750;78;21485;-69
2020/12/15 06:31:07;;;;;;;24.35;17.10;;;;;;;2.19;85.00;100036.71;1823887;78;21916;-67
2020/12/15 06:33:35;;;;;;;22.22;16.23;;;;;;;2.22;84.75;100040.53;1823450;78;21107;-69
2020/12/15 06:36:04;;;;;;;22.98;16.00;;;;;;;2.28;84.67;100037.56;1823647;78;21170;-67
2020/12/15 06:38:32;;;;;;;26.68;17.48;;;;;;;2.35;84.30;100039.28;1823700;78;21198;-74
2020/12/15 06:41:00;;;;;;;24.37;17.00;;;;;;;2.36;84.17;100037.58;1743419;78;21222;-69
2020/12/15 06:43:29;;;;;;;30.08;20.90;;;;;;;2.36;84.23;100036.30;1785358;80;22218;-70
2020/12/15 06:46:09;;;;;;;30.60;21.17;;;;;;;2.36;84.03;100042.28;1752891;81;21536;-68
2020/12/15 06:48:37;;;;;;;23.40;16.07;;;;;;;2.33;84.08;100041.42;1747325;81;21163;-68
2020/12/15 06:51:05;;;;;;;23.07;15.53;;;;;;;2.35;84.07;100043.56;1749250;81;21666;-68
2020/12/15 06:53:34;;;;;;;21.25;16.00;;;;;;;2.35;83.75;100045.70;1751619;81;21662;-67
2020/12/15 06:56:03;;;;;;;23.20;16.45;;;;;;;2.31;83.89;100046.55;1751719;81;21929;-68
2020/12/15 06:58:33;;;;;;;19.45;14.68;;;;;;;2.33;83.85;100048.70;1750287;81;21199;-68
2020/12/15 07:01:03;;;;;;;22.65;15.98;;;;;;;2.32;83.73;100048.69;1749562;81;21553;-68
2020/12/15 07:03:39;;;;;;;20.85;15.05;;;;;;;2.30;83.70;100048.69;1749541;81;21184;-67
2020/12/15 07:06:14;;;;;;;23.50;15.85;;;;;;;2.24;83.67;100057.66;1760145;80;22596;-68
2020/12/15 07:08:43;;;;;;;22.98;16.00;;;;;;;2.18;83.81;100052.53;1789608;79;21495;-68
2020/12/15 07:11:12;;;;;;;21.62;15.63;;;;;;;2.15;84.02;100055.09;1788405;79;21206;-69
2020/12/15 07:13:40;;;;;;;22.75;15.55;;;;;;;2.12;84.05;100047.38;1786451;79;21183;-69
2020/12/15 07:16:19;;;;;;;23.30;16.20;;;;;;;2.10;84.27;100046.52;1786827;79;21167;-69
2020/12/15 07:18:47;;;;;;;23.77;17.00;;;;;;;2.12;84.42;100049.95;1763899;80;21400;-68
2020/12/15 07:21:15;;;;;;;24.87;15.80;;;;;;;2.20;84.48;100053.82;1791227;79;21197;-69
2020/12/15 07:23:46;;;;;;;23.20;14.78;;;;;;;2.24;84.17;100055.52;1772678;79;21221;-69
2020/12/15 07:26:16;;;;;;;24.52;16.05;;;;;;;2.23;84.03;100062.36;1803248;79;21201;-67
2020/12/15 07:28:47;;;;;;;24.70;16.70;;;;;;;2.19;84.13;100058.09;1802183;79;22307;-68
2020/12/15 07:31:32;;;;;;;25.08;17.60;;;;;;;2.16;84.25;100062.36;1788222;79;21398;-68
2020/12/15 07:34:13;;;;;;;25.45;17.27;;;;;;;2.15;84.39;100059.36;1780261;79;21214;-68
2020/12/15 07:36:45;;;;;;;25.50;16.77;;;;;;;2.17;84.35;100065.36;1788623;80;27134;-68
2020/12/15 07:39:13;;;;;;;25.90;17.10;;;;;;;2.17;84.42;100062.37;1747534;80;22380;-67
2020/12/15 07:41:42;;;;;;;27.22;17.62;;;;;;;2.21;84.57;100067.05;1752251;81;21177;-69
2020/12/15 07:44:12;;;;;;;30.50;19.67;;;;;;;2.24;84.65;100065.35;1753011;80;21884;-67
2020/12/15 07:46:47;;;;;;;28.73;18.67;;;;;;;2.29;84.43;100073.06;1758823;81;21211;-66
2020/12/15 07:49:15;;;;;;;25.05;15.68;;;;;;;2.29;84.32;100075.20;1758713;81;21303;-66
2020/12/15 07:51:45;;;;;;;25.95;17.32;;;;;;;2.28;84.30;100075.20;1758872;80;21617;-68
2020/12/15 07:54:15;;;;;;;26.55;17.62;;;;;;;2.29;84.27;100076.92;1756421;80;21489;-72
2020/12/15 07:56:45;;;;;;;25.60;17.25;;;;;;;2.31;84.37;100077.35;1757310;80;21457;-67
2020/12/15 07:59:16;;;;;;;26.75;17.57;;;;;;;2.35;84.39;100085.92;1760838;81;21218;-69
2020/12/15 08:01:47;;;;;;;29.18;18.55;;;;;;;2.39;84.45;100085.94;1759239;81;21166;-71
2020/12/15 08:04:16;;;;;;;25.15;17.70;;;;;;;2.42;84.38;100087.20;1719217;81;21127;-67
2020/12/15 08:09:34;;;;;;;24.25;16.75;;;;;;;2.52;84.07;100094.92;1888987;75;22723;-72
2020/12/15 08:12:28;;;;;;;26.12;19.10;;;;;;;2.50;84.19;100088.50;1852710;76;22798;-71
2020/12/15 08:15:03;;;;;;;25.10;17.25;;;;;;;2.45;84.15;100095.33;1786946;79;21118;-70
2020/12/15 08:17:33;;;;;;;26.00;17.70;;;;;;;2.41;84.24;100093.18;1783754;79;21467;-73
2020/12/15 08:20:07;;;;;;;26.77;17.25;;;;;;;2.42;84.30;100100.03;1814369;79;21107;-70
2020/12/15 08:22:45;;;;;;;27.48;18.02;;;;;;;2.45;84.26;100095.76;1784549;79;21177;-71
2020/12/15 08:25:16;;;;;;;25.12;17.82;;;;;;;2.47;84.19;100092.34;1847056;77;21051;-71
2020/12/15 08:27:46;;;;;;;28.27;20.37;;;;;;;2.47;84.16;100097.48;1774572;80;21195;-70
2020/12/15 08:30:20;;;;;;;26.23;18.40;;;;;;;2.50;84.28;100091.06;1752273;80;22418;-70
2020/12/15 08:32:49;;;;;;;27.58;17.98;;;;;;;2.52;84.21;100091.92;1756730;81;21742;-70
2020/12/15 08:35:26;;;;;;;27.07;18.10;;;;;;;2.54;84.05;100090.22;1756386;81;21202;-70
2020/12/15 08:38:01;;;;;;;24.65;16.20;;;;;;;2.56;84.05;100092.37;1744170;82;21307;-69
2020/12/15 08:40:31;;;;;;;;;;;;;;;2.59;83.85;100083.38;1750657;82;21119;-71
2020/12/15 08:43:02;;;;;;;23.30;17.02;;;;;;;2.62;83.78;100085.07;1722063;80;22105;-72
2020/12/15 08:45:32;;;;;;;27.77;18.65;;;;;;;2.60;83.90;100080.39;1755372;80;21595;-71
2020/12/15 08:48:30;;;;;;;29.67;18.95;;;;;;;2.66;83.82;100079.94;1862797;75;22927;-72
2020/12/15 08:50:46;;;;;;;25.48;16.60;;;;;;;2.62;83.92;100079.94;1819070;77;21217;-72
2020/12/15 08:53:23;;;;;;;24.57;16.17;;;;;;;2.69;83.98;100083.80;1843965;77;21200;-73
2020/12/15 08:55:52;;;;;;;21.30;15.68;;;;;;;2.78;83.55;100081.67;1849029;77;21198;-72
2020/12/15 08:58:27;;;;;;;23.12;16.32;;;;;;;2.82;83.19;100087.64;1833054;77;21312;-71
2020/12/15 09:00:56;;;;;;;26.05;18.32;;;;;;;2.79;83.08;100084.67;1824916;77;21187;-71
2020/12/15 09:03:24;;;;;;;23.80;16.40;;;;;;;2.78;83.27;100084.23;1821950;77;21127;-72
2020/12/15 09:05:54;;;;;;;19.00;14.43;;;;;;;2.82;83.32;100083.36;1814356;78;21375;-72
2020/12/15 09:08:24;;;;;;;19.23;14.20;;;;;;;2.91;83.10;100079.52;1810337;78;21083;-73
2020/12/15 09:10:57;;;;;;;18.80;14.35;;;;;;;3.00;82.83;100079.91;1800687;76;21116;-71
2020/12/15 09:13:58;;;;;;;21.33;15.35;;;;;;;3.04;82.54;100073.49;1838849;76;21229;-72
2020/12/15 09:16:34;;;;;;;21.77;14.93;;;;;;;3.04;82.45;100076.48;1847149;76;21197;-72
2020/12/15 09:19:13;;;;;;;19.67;13.68;;;;;;;3.04;82.23;100072.63;1811911;78;21370;-71
2020/12/15 09:21:42;;;;;;;20.45;14.40;;;;;;;3.00;82.20;100072.20;1762178;80;21226;-71
2020/12/15 09:24:10;;;;;;;18.82;13.98;;;;;;;2.96;82.17;100070.09;1758762;81;21177;-71
2020/12/15 09:26:39;;;;;;;25.72;15.45;;;;;;;2.94;82.34;100073.09;1717261;81;21148;-72
2020/12/15 09:29:09;;;;;;;23.55;15.88;;;;;;;2.97;82.53;100071.80;1769443;80;21131;-72
2020/12/15 09:31:42;;;;;;;24.52;16.70;;;;;;;2.99;82.26;100072.66;1758762;80;21784;-71
2020/12/15 09:34:10;;;;;;;21.27;14.47;;;;;;;2.96;82.44;100070.09;1827827;77;21182;-70
2020/12/15 09:36:41;;;;;;;23.35;14.93;;;;;;;2.99;82.38;100071.81;1828998;77;21449;-71
2020/12/15 09:39:11;;;;;;;23.32;15.13;;;;;;;3.00;82.33;100083.34;1828014;77;21241;-72
2020/12/15 09:41:47;;;;;;;23.10;16.10;;;;;;;2.99;82.30;100079.52;1823857;76;21213;-71
2020/12/15 09:44:28;;;;;;;18.80;13.25;;;;;;;2.96;82.41;100081.66;1778103;79;21672;-70
2020/12/15 09:47:06;;;;;;;22.55;15.05;;;;;;;2.98;82.40;100078.66;1795255;77;21193;-70
2020/12/15 09:49:35;;;;;;;20.65;14.60;;;;;;;3.00;82.44;100085.05;1834764;78;21095;-68
2020/12/15 09:52:05;;;;;;;22.10;14.23;;;;;;;3.02;82.44;100081.63;1781330;78;21191;-71
2020/12/15 09:57:34;;;;;;;20.52;14.78;;;;;;;3.10;82.15;100084.20;1854491;76;22760;-73
2020/12/15 10:00:02;;;;;;;22.15;16.10;;;;;;;3.04;82.02;100075.20;1824505;78;21177;-71
2020/12/15 10:02:34;;;;;;;24.98;16.25;;;;;;;2.99;82.14;100071.81;1787254;79;22260;-71
2020/12/15 10:05:02;;;;;;;20.80;14.07;;;;;;;3.00;82.32;100069.20;1759364;80;21126;-74
2020/12/15 10:07:32;;;;;;;21.15;14.30;;;;;;;3.07;82.23;100075.20;1787434;80;21198;-70
2020/12/15 10:10:08;;;;;;;20.70;14.40;;;;;;;3.07;81.92;100070.92;1763818;80;21132;-76
2020/12/15 10:12:39;;;;;;;21.33;15.45;;;;;;;3.04;81.93;100070.06;1709345;80;21213;-75
2020/12/15 10:15:12;;;;;;;22.58;15.00;;;;;;;3.02;82.09;100071.78;1785099;79;21241;-76
2020/12/15 10:17:42;;;;;;;20.60;14.50;;;;;;;3.05;82.25;100069.20;1776556;79;21069;-70
2020/12/15 10:20:10;;;;;;;21.97;14.38;;;;;;;3.05;82.08;100066.21;1812039;79;21175;-70
2020/12/15 10:22:38;;;;;;;19.92;14.05;;;;;;;3.05;81.98;100068.78;1813054;78;21160;-74
2020/12/15 10:25:07;;;;;;;20.57;14.13;;;;;;;3.04;81.93;100078.63;1824351;78;21150;-72
2020/12/15 10:27:40;;;;;;;20.68;14.70;;;;;;;3.00;81.99;100076.06;1791781;78;21273;-74
2020/12/15 10:30:12;;;;;;;21.82;14.63;;;;;;;2.97;82.30;100076.09;1793190;78;21140;-73
2020/12/15 10:32:40;;;;;;;23.47;14.47;;;;;;;2.95;82.41;100078.66;1766128;79;21233;-73
2020/12/15 10:35:08;;;;;;;24.05;14.65;;;;;;;2.98;82.42;100075.23;1782829;79;21137;-73
2020/12/15 10:37:38;;;;;;;49.83;28.05;;;;;;;2.97;82.30;100079.52;1788112;79;21112;-73
2020/12/15 10:40:08;;;;;;;22.80;14.78;;;;;;;2.92;82.46;100074.80;1787061;79;21674;-71
2020/12/15 10:42:36;;;;;;;20.77;14.20;;;;;;;2.88;82.62;100080.80;1780620;79;21208;-71
2020/12/15 10:45:04;;;;;;;21.95;14.40;;;;;;;2.85;82.81;100082.08;1813930;78;21515;-75
2020/12/15 10:47:32;;;;;;;23.02;14.35;;;;;;;2.86;82.98;100082.94;1817982;79;21067;-72
2020/12/15 10:50:01;;;;;;;24.20;15.53;;;;;;;2.85;82.97;100079.50;1817725;78;21035;-74
2020/12/15 10:52:30;;;;;;;24.35;15.70;;;;;;;2.84;83.19;100082.08;1816130;78;21758;-71
2020/12/15 10:54:58;;;;;;;24.52;16.90;;;;;;;2.87;83.34;100085.93;1817704;78;21155;-72
2020/12/15 10:57:26;;;;;;;24.63;16.52;;;;;;;2.90;83.45;100077.80;1801661;78;21168;-69
2020/12/15 10:59:55;;;;;;;26.70;17.23;;;;;;;2.92;83.34;100073.95;1777008;79;21109;-70
2020/12/15 11:02:24;;;;;;;21.80;14.47;;;;;;;2.92;83.47;100077.37;1760415;79;21848;-70
2020/12/15 11:04:52;;;;;;;20.52;14.13;;;;;;;2.95;83.33;100079.09;1748955;80;21222;-69
2020/12/15 11:07:21;;;;;;;18.60;13.50;;;;;;;2.95;83.24;100089.36;1763609;81;21222;-69
2020/12/15 11:09:50;;;;;;;21.97;14.55;;;;;;;2.94;83.25;100085.94;1765856;79;21048;-69
2020/12/15 11:12:18;;;;;;;21.20;15.55;;;;;;;2.91;83.29;100085.94;1732736;81;21378;-78
2020/12/15 11:14:47;;;;;;;19.48;12.93;;;;;;;2.92;83.37;100089.36;1729417;81;21221;-74
2020/12/15 11:17:16;;;;;;;17.62;11.93;;;;;;;2.94;83.23;100090.22;1764903;79;21672;-75
2020/12/15 11:19:44;;;;;;;16.85;11.73;;;;;;;2.91;83.00;100090.22;1782101;79;21219;-72
2020/12/15 11:22:12;;;;;;;15.05;11.10;;;;;;;2.88;82.99;100095.35;1796666;79;21213;-73
2020/12/15 11:24:40;;;;;;;16.30;11.33;;;;;;;2.85;83.22;100097.92;1782989;79;21178;-73
2020/12/15 11:27:08;;;;;;;19.45;13.55;;;;;;;2.84;83.23;100102.20;1783218;80;21103;-72
2020/12/15 11:29:52;;;;;;;20.65;14.60;;;;;;;2.82;83.34;100097.48;1784066;79;21205;-72
2020/12/15 11:32:22;;;;;;;20.95;13.50;;;;;;;2.82;83.45;100100.05;1772444;79;21131;-73
2020/12/15 11:34:50;;;;;;;20.20;13.25;;;;;;;2.82;83.44;100089.78;1800628;79;21098;-71
2020/12/15 11:37:18;;;;;;;21.37;14.28;;;;;;;2.75;83.39;100091.94;1778067;79;21155;-72
2020/12/15 11:39:46;;;;;;;18.87;13.50;;;;;;;2.69;83.63;100089.36;1769284;79;21141;-72
2020/12/15 11:42:15;;;;;;;23.95;14.53;;;;;;;2.65;83.86;100091.06;1777718;80;21422;-72